Time;durP1;ratioP1;P1;durP2;ratioP2;P2;SDS_P1;SDS_P2;PMS_P1;PMS_P2;Temp;Humidity;BMP_temperature;BMP_pressure;BME280_temperature;BME280_humidity;BME280_pressure;Samples;Min_cycle;Max_cycle;Signal;HPM_P1;HPM_P2
2023/06/28 00:02:26;;;;;;;6.30;4.88;;;;;;;18.97;97.38;63961.81;5048569;28;20567;-75
2023/06/28 00:04:54;;;;;;;6.50;5.40;;;;;;;18.90;97.99;63957.59;5063311;28;20209;-75
2023/06/28 00:07:21;;;;;;;5.63;5.05;;;;;;;18.86;97.69;63950.84;5049367;28;20244;-76
2023/06/28 00:09:48;;;;;;;5.18;4.78;;;;;;;18.80;97.79;63946.66;5056166;28;20202;-75
2023/06/28 00:12:15;;;;;;;6.13;5.53;;;;;;;18.76;99.18;63937.34;5054688;28;20224;-75
2023/06/28 00:14:42;;;;;;;5.68;5.18;;;;;;;18.71;99.35;63937.28;5067972;28;20352;-75
2023/06/28 00:17:11;;;;;;;5.70;5.28;;;;;;;18.71;99.71;63939.84;5056664;28;20228;-75
2023/06/28 00:19:47;;;;;;;6.90;6.30;;;;;;;18.64;100.00;63930.50;5058411;28;20215;-76
2023/06/28 00:22:14;;;;;;;6.70;5.93;;;;;;;18.58;100.00;63924.25;5054366;28;20219;-76
2023/06/28 00:24:41;;;;;;;5.93;5.40;;;;;;;18.55;100.00;63915.97;5048141;28;20260;-75
2023/06/28 00:27:11;;;;;;;6.50;5.85;;;;;;;18.52;100.00;63915.41;5060476;28;20224;-75
2023/06/28 00:29:38;;;;;;;6.18;5.72;;;;;;;18.47;100.00;63915.38;5067148;28;20236;-75
2023/06/28 00:32:06;;;;;;;6.68;6.03;;;;;;;18.47;100.00;63910.22;5061875;28;20217;-77
2023/06/28 00:34:34;;;;;;;6.10;5.60;;;;;;;18.45;100.00;63907.63;5051917;28;20206;-74
2023/06/28 00:37:01;;;;;;;6.38;5.78;;;;;;;18.41;100.00;63909.63;5047886;28;20281;-76
2023/06/28 00:39:29;;;;;;;6.53;5.93;;;;;;;18.35;100.00;63895.09;5048441;28;20213;-77
2023/06/28 00:41:56;;;;;;;6.55;5.80;;;;;;;18.36;100.00;63896.66;5048041;28;20272;-76
2023/06/28 00:44:23;;;;;;;6.15;5.55;;;;;;;18.31;100.00;63896.63;5054533;28;20205;-74
2023/06/28 00:46:50;;;;;;;6.18;5.68;;;;;;;18.27;100.00;63894.50;5051730;28;20244;-75
2023/06/28 00:49:18;;;;;;;6.35;5.75;;;;;;;18.26;100.00;63890.88;5057917;28;20233;-76
2023/06/28 00:51:47;;;;;;;6.22;5.57;;;;;;;18.33;100.00;63901.28;5051611;28;20408;-77
2023/06/28 00:54:15;;;;;;;7.22;6.63;;;;;;;18.32;100.00;63895.09;5056593;28;20215;-75
2023/06/28 00:56:42;;;;;;;6.55;6.05;;;;;;;18.32;100.00;63899.72;5059162;28;20217;-75
2023/06/28 00:59:11;;;;;;;6.72;6.13;;;;;;;18.30;100.00;63897.63;5047447;28;20502;-76
2023/06/28 01:01:38;;;;;;;7.68;6.65;;;;;;;18.30;100.00;63892.47;5048810;28;20218;-75
2023/06/28 01:04:06;;;;;;;7.63;6.97;;;;;;;18.25;100.00;63890.38;5052417;28;20529;-75
2023/06/28 01:06:35;;;;;;;7.40;6.90;;;;;;;18.25;100.00;63889.84;5047251;28;20221;-76
2023/06/28 01:09:04;;;;;;;8.00;7.30;;;;;;;18.21;100.00;63883.63;5046739;28;20229;-76
2023/06/28 01:11:32;;;;;;;7.30;6.63;;;;;;;18.21;100.00;63888.78;5049324;28;20217;-76
2023/06/28 01:14:00;;;;;;;8.02;7.32;;;;;;;18.19;100.00;63875.84;5066743;28;20563;-75
2023/06/28 01:16:27;;;;;;;7.70;7.00;;;;;;;18.19;100.00;63884.13;5065960;28;20276;-75
2023/06/28 01:18:55;;;;;;;8.45;7.60;;;;;;;18.14;100.00;63878.38;5059834;28;20202;-75
2023/06/28 01:21:26;;;;;;;7.90;7.15;;;;;;;18.17;100.00;63884.09;5051367;28;20220;-75
2023/06/28 01:23:55;;;;;;;9.05;8.25;;;;;;;18.22;100.00;63882.06;5066486;28;20232;-76
2023/06/28 01:26:23;;;;;;;8.70;8.00;;;;;;;18.17;100.00;63882.03;5066173;28;20475;-75
2023/06/28 01:28:51;;;;;;;8.98;7.85;;;;;;;18.12;100.00;63878.88;5062692;28;20233;-75
2023/06/28 01:31:19;;;;;;;10.05;9.13;;;;;;;18.17;100.00;63881.53;5057215;28;20266;-76
2023/06/28 01:33:48;;;;;;;9.52;8.43;;;;;;;18.14;100.00;63873.75;5046320;28;20209;-76
2023/06/28 01:36:15;;;;;;;9.88;8.98;;;;;;;18.15;100.00;63879.44;5046033;28;20278;-76
2023/06/28 01:38:43;;;;;;;9.60;8.80;;;;;;;18.11;100.00;63872.69;5054578;28;20213;-75
2023/06/28 01:41:12;;;;;;;9.60;8.70;;;;;;;17.90;100.00;63853.91;5046632;28;20217;-74
2023/06/28 01:43:41;;;;;;;10.00;8.55;;;;;;;18.04;100.00;63870.53;5050271;28;20487;-75
2023/06/28 01:46:09;;;;;;;10.50;9.60;;;;;;;18.01;100.00;63865.38;5066994;28;20487;-75
2023/06/28 01:48:36;;;;;;;10.40;9.50;;;;;;;18.00;100.00;63863.81;5057826;28;20260;-75
2023/06/28 01:51:04;;;;;;;11.85;10.75;;;;;;;18.01;100.00;63862.78;5066117;28;20542;-77
2023/06/28 01:53:31;;;;;;;12.63;9.70;;;;;;;17.98;100.00;63861.72;5065271;28;20486;-75
2023/06/28 01:55:59;;;;;;;12.98;10.50;;;;;;;17.98;100.00;63859.16;5046787;28;20256;-77
2023/06/28 01:58:28;;;;;;;11.48;10.48;;;;;;;17.99;100.00;63863.28;5045464;28;20216;-76
2023/06/28 02:00:55;;;;;;;12.95;10.95;;;;;;;18.01;100.00;63865.38;5045530;28;20248;-75
2023/06/28 02:03:22;;;;;;;11.50;10.40;;;;;;;17.98;100.00;63861.72;5045521;28;20209;-75
2023/06/28 02:05:48;;;;;;;12.13;10.88;;;;;;;18.02;100.00;63863.31;5044477;28;20217;-75
2023/06/28 02:08:15;;;;;;;11.88;10.68;;;;;;;18.00;100.00;63863.81;5046751;28;20227;-76
2023/06/28 02:10:42;;;;;;;12.45;11.38;;;;;;;17.95;100.00;63853.44;5050304;28;20281;-77
2023/06/28 02:13:10;;;;;;;11.85;10.75;;;;;;;17.83;100.00;63846.09;5058569;28;20236;-76
2023/06/28 02:15:40;;;;;;;13.00;11.77;;;;;;;17.75;100.00;63833.13;5050859;28;20356;-76
2023/06/28 02:18:07;;;;;;;13.35;12.05;;;;;;;17.82;100.00;63840.44;5064661;28;20211;-77
2023/06/28 02:20:34;;;;;;;14.77;12.90;;;;;;;17.86;100.00;63849.22;5045661;28;20294;-76
2023/06/28 02:23:01;;;;;;;14.30;13.00;;;;;;;17.83;100.00;63844.03;5047031;28;20425;-75
2023/06/28 02:25:29;;;;;;;15.30;13.73;;;;;;;17.79;100.00;63836.78;5046038;28;20252;-75
2023/06/28 02:27:56;;;;;;;15.95;14.43;;;;;;;17.76;100.00;63836.75;5056915;28;20198;-75
2023/06/28 02:30:23;;;;;;;16.88;15.25;;;;;;;17.73;100.00;63833.09;5045473;28;20201;-76
2023/06/28 02:32:52;;;;;;;16.40;14.70;;;;;;;17.75;100.00;63838.28;5045239;28;20268;-76
2023/06/28 02:35:19;;;;;;;16.13;14.45;;;;;;;17.76;100.00;63839.31;5045551;28;20216;-76
2023/06/28 02:37:46;;;;;;;16.55;14.85;;;;;;;17.76;100.00;63841.38;5057386;28;20288;-75
2023/06/28 02:40:14;;;;;;;16.38;14.88;;;;;;;17.71;100.00;63828.97;5059123;28;20197;-76
2023/06/28 02:42:41;;;;;;;16.92;15.48;;;;;;;17.72;100.00;63834.63;5051387;28;20201;-75
2023/06/28 02:45:09;;;;;;;17.02;15.32;;;;;;;17.70;100.00;63827.94;5047594;28;20276;-75
2023/06/28 02:47:37;;;;;;;16.65;15.05;;;;;;;17.69;100.00;63832.03;5057687;28;20197;-76
2023/06/28 02:50:07;;;;;;;17.88;16.15;;;;;;;17.71;100.00;63831.53;5062705;28;20228;-76
2023/06/28 02:52:34;;;;;;;16.38;14.45;;;;;;;17.66;100.00;63828.38;5063078;28;20258;-76
2023/06/28 02:55:01;;;;;;;16.05;14.55;;;;;;;17.66;100.00;63826.34;5050775;28;20197;-76
2023/06/28 02:57:28;;;;;;;16.27;14.68;;;;;;;17.70;100.00;63829.97;5053489;28;20216;-74
2023/06/28 02:59:55;;;;;;;17.25;15.57;;;;;;;17.66;100.00;63828.38;5063971;28;20219;-75
2023/06/28 03:02:22;;;;;;;17.55;15.88;;;;;;;17.75;100.00;63838.28;5064797;28;20221;-76
2023/06/28 03:04:49;;;;;;;16.40;14.80;;;;;;;17.75;100.00;63835.72;5050315;28;20201;-76
2023/06/28 03:07:18;;;;;;;16.23;14.68;;;;;;;17.74;100.00;63834.16;5053264;28;20529;-76
2023/06/28 03:09:46;;;;;;;16.13;14.73;;;;;;;17.82;100.00;63840.44;5045323;28;20304;-75
2023/06/28 03:12:12;;;;;;;17.20;15.60;;;;;;;17.84;100.00;63841.97;5045317;28;20229;-75
2023/06/28 03:14:39;;;;;;;17.15;15.55;;;;;;;17.77;100.00;63839.84;5067406;28;20197;-76
2023/06/28 03:17:07;;;;;;;17.98;14.05;;;;;;;17.85;100.00;63846.13;5070074;28;20232;-77
2023/06/28 03:19:35;;;;;;;15.35;13.88;;;;;;;17.95;100.00;63859.09;5056478;28;20201;-76
2023/06/28 03:22:03;;;;;;;16.05;14.45;;;;;;;17.96;100.00;63855.00;5053934;28;20263;-74
2023/06/28 03:24:31;;;;;;;15.43;14.02;;;;;;;17.94;100.00;63857.56;5058520;28;20201;-76
2023/06/28 03:26:58;;;;;;;16.85;15.00;;;;;;;18.01;100.00;63860.22;5064405;28;20223;-75
2023/06/28 03:29:25;;;;;;;15.02;13.52;;;;;;;17.97;100.00;63863.78;5065023;28;20263;-74
2023/06/28 03:31:51;;;;;;;16.58;15.10;;;;;;;18.01;100.00;63859.69;5061784;28;20224;-77
2023/06/28 03:34:18;;;;;;;16.92;15.32;;;;;;;18.00;100.00;63864.31;5070757;28;20209;-77
2023/06/28 03:36:47;;;;;;;16.58;15.07;;;;;;;18.09;100.00;63870.59;5059145;28;20241;-76
2023/06/28 03:39:14;;;;;;;15.95;14.27;;;;;;;18.14;100.00;63880.97;5062264;28;20213;-75
2023/06/28 03:41:42;;;;;;;15.93;14.43;;;;;;;18.24;100.00;63891.41;5063505;28;20250;-76
2023/06/28 03:44:10;;;;;;;17.67;15.70;;;;;;;18.34;100.00;63894.06;5052625;28;20213;-76
2023/06/28 03:46:37;;;;;;;16.48;14.88;;;;;;;18.30;100.00;63895.06;5062525;28;20224;-75
2023/06/28 03:49:04;;;;;;;16.42;14.82;;;;;;;18.34;100.00;63897.16;5052880;28;20240;-75
2023/06/28 03:51:31;;;;;;;15.70;14.27;;;;;;;18.47;100.00;63912.78;5071665;28;20228;-77
2023/06/28 03:53:58;;;;;;;16.70;14.98;;;;;;;18.55;100.00;63918.03;5058592;28;20200;-75
2023/06/28 03:56:26;;;;;;;16.60;14.82;;;;;;;18.64;100.00;63927.41;5055784;28;20324;-75
2023/06/28 03:58:55;;;;;;;16.33;14.73;;;;;;;18.68;100.00;63929.53;5062008;28;20208;-76
2023/06/28 04:01:22;;;;;;;16.25;14.45;;;;;;;18.69;100.00;63935.22;5071890;28;20239;-75
2023/06/28 04:03:48;;;;;;;17.15;15.20;;;;;;;18.82;100.00;63946.69;5055460;28;20552;-75
2023/06/28 04:06:16;;;;;;;16.40;14.82;;;;;;;18.96;100.00;63963.88;5050828;28;20221;-75
2023/06/28 04:08:45;;;;;;;16.48;14.82;;;;;;;19.04;100.00;63971.69;5052828;28;20542;-76
2023/06/28 04:11:12;;;;;;;17.05;15.25;;;;;;;19.15;100.00;63985.75;5057576;28;20220;-75
2023/06/28 04:13:40;;;;;;;17.33;14.75;;;;;;;19.27;100.00;63996.19;5057502;28;20216;-76
2023/06/28 04:16:08;;;;;;;15.45;14.00;;;;;;;19.35;100.00;64004.03;5050776;28;20260;-75
2023/06/28 04:18:35;;;;;;;15.50;13.90;;;;;;;19.34;100.00;64000.41;5065392;28;20206;-74
2023/06/28 04:21:02;;;;;;;16.83;15.07;;;;;;;19.42;100.00;64011.31;5065739;28;20247;-76
2023/06/28 04:23:29;;;;;;;17.17;15.48;;;;;;;19.57;100.00;64023.88;5067090;28;20197;-76
2023/06/28 04:25:57;;;;;;;21.55;14.95;;;;;;;19.61;100.00;64031.16;5053616;28;20291;-77
2023/06/28 04:28:25;;;;;;;16.33;14.70;;;;;;;19.72;100.00;64039.50;5049725;28;20236;-76
2023/06/28 04:30:52;;;;;;;18.13;14.35;;;;;;;19.88;100.00;64056.22;5061730;28;20256;-79
2023/06/28 04:33:22;;;;;;;16.00;14.40;;;;;;;20.03;100.00;64074.44;5056239;28;20197;-75
2023/06/28 04:35:50;;;;;;;15.95;14.45;;;;;;;19.68;100.00;64035.88;5063536;28;20279;-75
2023/06/28 04:38:19;;;;;;;15.75;14.25;;;;;;;19.93;100.00;64064.53;5056387;28;20217;-75
2023/06/28 04:40:46;;;;;;;18.10;15.13;;;;;;;19.71;100.00;64041.06;5049981;28;20542;-75
2023/06/28 04:43:13;;;;;;;17.08;15.30;;;;;;;19.43;100.00;64007.72;5050648;28;20201;-75
2023/06/28 04:45:41;;;;;;;19.08;16.92;;;;;;;19.40;100.00;64009.75;5064165;28;20280;-75
2023/06/28 04:48:09;;;;;;;23.52;16.75;;;;;;;19.44;100.00;64019.09;5055085;28;20510;-76
2023/06/28 04:50:39;;;;;;;17.60;15.38;;;;;;;19.55;100.00;64017.66;5053857;28;20242;-75
2023/06/28 04:53:06;;;;;;;18.42;16.73;;;;;;;19.40;100.00;64009.75;5057306;28;20210;-76
2023/06/28 04:55:34;;;;;;;16.85;15.13;;;;;;;19.59;100.00;64023.88;5051163;28;20213;-73
2023/06/28 04:58:02;;;;;;;17.52;15.82;;;;;;;19.39;100.00;64010.78;5051860;28;20201;-76
2023/06/28 05:00:30;;;;;;;18.33;15.18;;;;;;;19.47;100.00;64019.13;5046785;28;20228;-78
2023/06/28 05:02:59;;;;;;;18.08;15.25;;;;;;;19.61;100.00;64030.63;5047925;28;20205;-76
2023/06/28 05:05:27;;;;;;;17.73;15.85;;;;;;;19.44;100.00;64011.38;5053090;28;20235;-75
2023/06/28 05:07:59;;;;;;;18.48;15.30;;;;;;;19.60;100.00;64029.59;5063885;28;20449;-76
2023/06/28 05:10:27;;;;;;;15.48;13.68;;;;;;;19.89;100.00;64062.41;5057802;28;20232;-77
2023/06/28 05:12:54;;;;;;;17.52;14.05;;;;;;;19.75;100.00;64040.06;5058282;28;20197;-76
2023/06/28 05:15:21;;;;;;;15.73;14.25;;;;;;;19.49;100.00;64018.63;5065375;28;20208;-74
2023/06/28 05:17:48;;;;;;;17.33;14.95;;;;;;;19.45;100.00;64011.88;5057055;28;20259;-77
2023/06/28 05:20:14;;;;;;;19.60;15.88;;;;;;;19.47;100.00;64013.97;5055515;28;20202;-76
2023/06/28 05:22:43;;;;;;;17.25;14.52;;;;;;;19.29;100.00;63998.25;5049195;28;20375;-75
2023/06/28 05:25:11;;;;;;;19.13;13.55;;;;;;;19.31;100.00;64000.38;5046833;28;20205;-77
2023/06/28 05:27:38;;;;;;;17.13;15.40;;;;;;;19.66;100.00;64033.25;5046644;28;20309;-78
2023/06/28 05:30:07;;;;;;;15.98;13.98;;;;;;;19.51;100.00;64021.25;5061588;28;20224;-77
2023/06/28 05:32:34;;;;;;;17.05;14.57;;;;;;;19.72;100.00;64039.50;5062725;28;20209;-76
2023/06/28 05:35:02;;;;;;;18.00;14.38;;;;;;;19.73;100.00;64040.56;5046601;28;20244;-74
2023/06/28 05:37:29;;;;;;;18.42;14.30;;;;;;;19.45;100.00;64014.97;5061782;28;20240;-75
2023/06/28 05:39:56;;;;;;;17.00;15.27;;;;;;;19.59;100.00;64029.06;5065225;28;20216;-76
2023/06/28 05:42:26;;;;;;;19.20;15.20;;;;;;;19.86;100.00;64051.53;5048135;28;20546;-77
2023/06/28 05:44:53;;;;;;;15.98;14.18;;;;;;;20.11;100.00;64082.78;5046321;28;20215;-75
2023/06/28 05:47:19;;;;;;;16.55;14.18;;;;;;;19.90;100.00;64058.81;5045334;28;20485;-75
2023/06/28 05:49:46;;;;;;;18.58;14.70;;;;;;;20.00;100.00;64069.25;5051686;28;20252;-75
2023/06/28 05:52:13;;;;;;;15.38;13.80;;;;;;;20.34;100.00;64104.22;5045805;28;20225;-76
2023/06/28 05:54:41;;;;;;;15.48;13.88;;;;;;;20.50;100.00;64120.94;5047120;28;20201;-77
2023/06/28 05:57:08;;;;;;;18.48;15.48;;;;;;;20.25;100.00;64094.84;5050142;28;20225;-75
2023/06/28 05:59:36;;;;;;;18.23;16.25;;;;;;;20.28;100.00;64095.38;5053883;28;20366;-74
2023/06/28 06:02:04;;;;;;;17.65;15.65;;;;;;;20.02;100.00;64073.91;5052967;28;20224;-75
2023/06/28 06:04:31;;;;;;;18.63;15.07;;;;;;;20.01;100.00;64072.88;5050215;28;20197;-75
2023/06/28 06:06:59;;;;;;;17.45;15.63;;;;;;;20.20;100.00;64090.16;5045969;28;20267;-77
2023/06/28 06:09:29;;;;;;;19.90;15.18;;;;;;;20.28;100.00;64095.91;5050414;28;20237;-75
2023/06/28 06:11:56;;;;;;;18.98;15.32;;;;;;;20.12;100.00;64084.34;5046365;28;20225;-76
2023/06/28 06:14:23;;;;;;;18.75;16.80;;;;;;;20.23;100.00;64093.28;5053969;28;20370;-77
2023/06/28 06:16:54;;;;;;;19.05;17.10;;;;;;;20.17;100.00;64087.00;5050054;28;20243;-75
2023/06/28 06:19:21;;;;;;;22.75;18.35;;;;;;;20.14;100.00;64083.84;5066482;28;20211;-74
2023/06/28 06:21:48;;;;;;;18.67;16.77;;;;;;;20.14;100.00;64085.94;5048949;28;20259;-75
2023/06/28 06:24:15;;;;;;;19.75;17.58;;;;;;;20.26;100.00;64098.47;5045845;28;20248;-74
2023/06/28 06:26:42;;;;;;;21.02;16.85;;;;;;;20.12;100.00;64076.59;5047395;28;20518;-75
2023/06/28 06:29:09;;;;;;;19.60;17.50;;;;;;;20.36;100.00;64103.72;5045742;28;20241;-74
2023/06/28 06:31:36;;;;;;;19.27;17.38;;;;;;;20.44;100.00;64117.78;5043878;28;20232;-75
2023/06/28 06:34:05;;;;;;;21.58;16.35;;;;;;;20.58;100.00;64132.41;5049336;28;20369;-77
2023/06/28 06:36:32;;;;;;;19.83;17.90;;;;;;;20.56;100.00;64127.19;5051150;28;20224;-76
2023/06/28 06:38:59;;;;;;;19.30;17.23;;;;;;;20.83;100.00;64157.44;5045807;28;20544;-77
2023/06/28 06:41:27;;;;;;;18.65;15.85;;;;;;;21.18;100.00;64194.53;5056024;28;20221;-78
2023/06/28 06:43:54;;;;;;;18.27;16.50;;;;;;;21.00;100.00;64175.22;5048182;28;20221;-77
2023/06/28 06:46:21;;;;;;;17.88;16.08;;;;;;;21.33;97.77;64207.09;5062606;28;20221;-76
2023/06/28 06:48:48;;;;;;;23.50;16.55;;;;;;;21.19;99.67;64192.47;5062963;28;20517;-77
2023/06/28 06:51:17;;;;;;;18.17;16.23;;;;;;;20.98;100.00;64171.06;5060735;28;20401;-77
2023/06/28 06:53:44;;;;;;;18.05;16.10;;;;;;;21.07;98.59;64179.94;5054732;28;20204;-77
2023/06/28 06:56:11;;;;;;;19.85;16.92;;;;;;;20.84;100.00;64158.47;5053581;28;20394;-76
2023/06/28 06:58:38;;;;;;;19.77;17.75;;;;;;;20.96;100.00;64168.44;5046882;28;20205;-76
2023/06/28 07:01:05;;;;;;;19.35;17.02;;;;;;;20.87;100.00;64159.03;5046980;28;20225;-75
2023/06/28 07:03:32;;;;;;;20.73;16.48;;;;;;;20.78;100.00;64152.22;5044324;28;20213;-75
2023/06/28 07:06:00;;;;;;;24.45;16.88;;;;;;;20.75;100.00;64149.09;5044037;28;20229;-75
2023/06/28 07:08:28;;;;;;;19.95;17.85;;;;;;;20.48;100.00;64116.25;5045300;28;20243;-76
2023/06/28 07:10:55;;;;;;;18.13;16.33;;;;;;;20.76;100.00;64150.66;5051898;28;20292;-78
2023/06/28 07:13:22;;;;;;;18.15;16.23;;;;;;;20.98;99.87;64173.09;5058852;28;20459;-75
2023/06/28 07:15:51;;;;;;;20.10;16.45;;;;;;;20.77;99.99;64148.59;5051443;28;20227;-76
2023/06/28 07:18:18;;;;;;;24.20;15.98;;;;;;;21.14;98.47;64190.34;5049496;28;20247;-77
2023/06/28 07:20:45;;;;;;;18.08;16.17;;;;;;;21.07;98.32;64183.03;5047244;28;20513;-75
2023/06/28 07:23:12;;;;;;;17.60;15.88;;;;;;;20.83;100.00;64152.28;5052688;28;20490;-75
2023/06/28 07:25:40;;;;;;;17.88;15.98;;;;;;;20.77;100.00;64146.00;5044199;28;20275;-75
2023/06/28 07:28:07;;;;;;;21.98;15.70;;;;;;;20.96;100.00;64174.13;5048085;28;20270;-75
2023/06/28 07:30:53;;;;;;;18.65;15.48;;;;;;;20.59;100.00;64128.25;5049838;28;20279;-74
2023/06/28 07:33:21;;;;;;;16.08;14.48;;;;;;;20.82;100.00;64153.81;5059605;28;20197;-77
2023/06/28 07:35:49;;;;;;;18.85;14.70;;;;;;;21.12;100.00;64185.66;5044396;28;20225;-76
2023/06/28 07:38:18;;;;;;;20.25;14.77;;;;;;;21.74;95.19;64250.44;5046455;28;20255;-76
2023/06/28 07:40:47;;;;;;;16.15;13.57;;;;;;;21.43;95.78;64217.53;5049323;28;20240;-74
2023/06/28 07:43:15;;;;;;;16.73;14.20;;;;;;;21.02;99.30;64177.31;5051689;28;20205;-74
2023/06/28 07:45:42;;;;;;;17.38;14.18;;;;;;;20.81;100.00;64150.72;5065094;28;20225;-75
2023/06/28 07:48:09;;;;;;;17.08;13.77;;;;;;;20.65;100.00;64137.13;5060211;28;20205;-74
2023/06/28 07:50:37;;;;;;;16.05;14.10;;;;;;;20.50;100.00;64116.25;5051597;28;20290;-75
2023/06/28 07:53:04;;;;;;;21.00;13.55;;;;;;;20.92;99.38;64164.25;5049679;28;20198;-74
2023/06/28 07:55:31;;;;;;;13.50;12.05;;;;;;;21.07;95.99;64177.34;5054937;28;20232;-75
2023/06/28 07:58:00;;;;;;;14.60;13.00;;;;;;;20.60;98.00;64128.78;5051883;28;20259;-77
2023/06/28 08:00:28;;;;;;;14.93;13.02;;;;;;;20.68;97.97;64144.88;5042249;28;20221;-75
2023/06/28 08:02:55;;;;;;;13.13;11.52;;;;;;;20.41;100.00;64108.94;5049917;28;20251;-73
2023/06/28 08:05:23;;;;;;;16.83;12.63;;;;;;;20.75;99.42;64143.91;5049969;28;20231;-75
2023/06/28 08:07:50;;;;;;;14.02;12.38;;;;;;;20.68;97.85;64142.81;5065596;28;20208;-76
2023/06/28 08:10:17;;;;;;;13.65;11.25;;;;;;;21.24;87.85;64198.22;5037618;28;20243;-75
2023/06/28 08:12:43;;;;;;;12.20;11.00;;;;;;;21.75;82.53;64248.38;5049818;28;20209;-75
2023/06/28 08:15:12;;;;;;;12.43;10.90;;;;;;;21.63;80.03;64238.41;5047589;28;20209;-76
2023/06/28 08:17:39;;;;;;;11.10;10.10;;;;;;;21.78;80.64;64257.22;5057674;28;20204;-76
2023/06/28 08:20:08;;;;;;;10.70;9.70;;;;;;;22.39;74.74;64314.75;5054143;28;20244;-75
2023/06/28 08:22:35;;;;;;;10.88;9.88;;;;;;;22.76;70.53;64359.16;5048274;28;20247;-75
2023/06/28 08:25:03;;;;;;;15.55;9.93;;;;;;;22.59;73.17;64338.78;5048322;28;20212;-76
2023/06/28 08:27:30;;;;;;;15.02;10.07;;;;;;;22.68;74.17;64350.28;5049842;28;20224;-76
2023/06/28 08:29:58;;;;;;;11.77;10.63;;;;;;;22.69;71.17;64351.84;5046790;28;20197;-76
2023/06/28 08:32:26;;;;;;;11.38;10.23;;;;;;;22.71;71.14;64348.75;5050768;28;20263;-75
2023/06/28 08:34:53;;;;;;;11.57;10.02;;;;;;;23.14;70.78;64397.88;5049096;28;20209;-75
2023/06/28 08:37:20;;;;;;;13.63;10.45;;;;;;;23.40;65.77;64425.09;5054816;28;20235;-75
2023/06/28 08:39:47;;;;;;;12.30;9.50;;;;;;;23.41;64.82;64424.06;5055466;28;20221;-77
2023/06/28 08:42:18;;;;;;;10.88;9.77;;;;;;;23.38;65.59;64423.00;5048139;28;20229;-76
2023/06/28 08:44:45;;;;;;;12.88;9.88;;;;;;;;;;5047344;28;20210;-76
2023/06/28 08:47:13;;;;;;;14.43;10.07;;;;;;;23.24;68.16;64405.72;5060049;28;20248;-76
2023/06/28 08:49:43;;;;;;;10.05;9.05;;;;;;;23.46;67.08;64431.88;5068075;28;20205;-75
2023/06/28 08:52:11;;;;;;;14.07;9.80;;;;;;;22.34;71.23;64312.13;5053260;28;20304;-76
2023/06/28 08:54:39;;;;;;;10.93;10.00;;;;;;;22.41;73.07;64316.84;5050763;28;20255;-75
2023/06/28 08:57:08;;;;;;;11.05;10.05;;;;;;;22.30;74.99;64315.72;5057114;28;20217;-75
2023/06/28 08:59:36;;;;;;;12.38;10.13;;;;;;;22.16;75.40;64293.81;5053626;28;21645;-76
2023/06/28 09:02:04;;;;;;;11.68;10.18;;;;;;;21.69;77.77;64247.28;5056093;28;20231;-74
2023/06/28 09:04:31;;;;;;;11.32;10.13;;;;;;;21.67;79.60;64243.13;5059812;28;20221;-75
2023/06/28 09:07:01;;;;;;;10.70;9.55;;;;;;;22.13;77.96;64293.28;5052058;28;20221;-75
2023/06/28 09:09:30;;;;;;;10.40;9.50;;;;;;;22.10;79.40;64290.16;5051541;28;20201;-74
2023/06/28 09:11:57;;;;;;;14.13;10.23;;;;;;;22.54;75.77;64338.75;5048440;28;20236;-75
2023/06/28 09:14:24;;;;;;;11.07;9.98;;;;;;;22.53;73.68;64329.38;5061392;28;20205;-74
2023/06/28 09:16:51;;;;;;;10.85;9.80;;;;;;;22.60;73.13;64334.13;5063227;28;20263;-76
2023/06/28 09:19:18;;;;;;;11.55;10.40;;;;;;;22.81;70.14;64364.38;5047479;28;20201;-76
2023/06/28 09:21:45;;;;;;;11.10;9.85;;;;;;;22.96;69.23;64376.97;5052471;28;20271;-77
2023/06/28 09:24:14;;;;;;;11.15;10.15;;;;;;;22.71;71.16;64350.81;5047608;28;20201;-75
2023/06/28 09:26:43;;;;;;;11.32;10.15;;;;;;;22.52;73.20;64331.44;5069068;28;20234;-75
2023/06/28 09:29:12;;;;;;;12.57;10.05;;;;;;;22.73;71.84;64350.84;5057657;28;20208;-77
2023/06/28 09:31:41;;;;;;;12.50;9.95;;;;;;;23.00;69.21;64381.16;5056964;28;20248;-75
2023/06/28 09:34:08;;;;;;;10.90;9.95;;;;;;;22.76;71.50;64361.75;5062953;28;20236;-78
2023/06/28 09:36:37;;;;;;;10.18;9.18;;;;;;;23.01;69.09;64386.84;5047152;28;20225;-76
2023/06/28 09:39:05;;;;;;;11.20;9.77;;;;;;;23.37;69.53;64419.34;5058034;28;20240;-74
2023/06/28 09:41:40;;;;;;;12.48;10.23;;;;;;;23.46;70.57;64426.16;5059471;28;20232;-75
2023/06/28 09:44:09;;;;;;;10.57;9.57;;;;;;;23.60;67.58;64446.53;5060833;28;20228;-75
2023/06/28 09:46:36;;;;;;;11.80;10.00;;;;;;;23.69;66.67;64452.81;5049561;28;20220;-76
2023/06/28 09:49:03;;;;;;;10.82;9.32;;;;;;;23.78;68.34;64464.84;5055758;28;20213;-75
2023/06/28 09:51:30;;;;;;;11.82;9.82;;;;;;;23.69;66.65;64455.44;5064849;28;20587;-76
2023/06/28 09:53:58;;;;;;;11.73;9.73;;;;;;;23.75;64.49;64461.69;5058688;28;20265;-74
2023/06/28 09:56:35;;;;;;;10.10;9.15;;;;;;;23.48;66.16;64430.84;5051733;28;20279;-75
2023/06/28 09:59:06;;;;;;;11.05;9.95;;;;;;;23.69;64.78;64455.44;5059619;28;20416;-75
2023/06/28 10:01:35;;;;;;;10.65;9.55;;;;;;;23.73;66.44;64459.59;5066881;28;20286;-76
2023/06/28 10:04:05;;;;;;;10.30;9.15;;;;;;;23.75;64.03;64457.03;5058567;28;20217;-75
2023/06/28 10:06:34;;;;;;;10.77;9.68;;;;;;;23.77;65.02;64461.19;5051793;28;20221;-74
2023/06/28 10:09:02;;;;;;;10.15;9.15;;;;;;;23.99;64.19;64481.63;5051255;28;20493;-74
2023/06/28 10:11:32;;;;;;;12.18;10.13;;;;;;;23.58;64.53;64446.50;5048779;28;20247;-77
2023/06/28 10:14:01;;;;;;;12.23;11.13;;;;;;;23.55;64.35;64443.38;5054264;28;20216;-76
2023/06/28 10:16:32;;;;;;;11.18;10.18;;;;;;;23.70;62.46;64454.41;5050000;28;20224;-76
2023/06/28 10:19:00;;;;;;;10.45;9.52;;;;;;;23.89;63.09;64473.75;5055861;28;20208;-77
2023/06/28 10:21:28;;;;;;;10.38;9.30;;;;;;;23.92;61.33;64482.63;5049161;28;20224;-76
2023/06/28 10:23:56;;;;;;;11.70;9.57;;;;;;;23.86;62.53;64476.34;5052246;28;20213;-77
2023/06/28 10:26:23;;;;;;;11.77;9.77;;;;;;;23.41;64.60;64424.06;5047471;28;20228;-74
2023/06/28 10:28:54;;;;;;;10.52;9.63;;;;;;;23.34;66.58;64416.19;5063268;28;20204;-75
2023/06/28 10:31:21;;;;;;;10.68;9.70;;;;;;;23.37;64.82;64422.47;5052124;28;20238;-76
2023/06/28 10:33:50;;;;;;;10.30;9.40;;;;;;;23.70;64.74;64457.00;5055280;28;20358;-76
2023/06/28 10:36:18;;;;;;;8.95;8.18;;;;;;;24.25;62.10;64510.91;5051707;28;20227;-76
2023/06/28 10:38:45;;;;;;;15.00;10.27;;;;;;;24.45;60.31;64535.00;5047585;28;20406;-75
2023/06/28 10:41:16;;;;;;;9.55;8.75;;;;;;;24.25;60.11;64513.53;5057149;28;20225;-76
2023/06/28 10:43:43;;;;;;;9.88;8.98;;;;;;;24.38;60.76;64527.66;5053767;28;20197;-73
2023/06/28 10:46:23;;;;;;;10.93;9.55;;;;;;;24.60;58.38;64550.16;5052205;28;20225;-76
2023/06/28 10:48:55;;;;;;;14.02;9.20;;;;;;;24.17;60.00;64503.06;5051210;28;20504;-76
2023/06/28 10:51:23;;;;;;;10.35;9.43;;;;;;;24.47;59.47;64536.56;5053056;28;20237;-76
2023/06/28 10:53:55;;;;;;;11.77;9.60;;;;;;;24.48;60.04;64538.13;5049155;28;20406;-76
2023/06/28 10:56:22;;;;;;;9.73;8.73;;;;;;;24.02;59.91;64487.38;5052802;28;20213;-75
2023/06/28 10:58:55;;;;;;;10.30;8.63;;;;;;;24.00;62.91;64488.41;5051676;28;20205;-74
2023/06/28 11:01:33;;;;;;;10.48;9.35;;;;;;;24.24;60.09;64513.00;5056448;28;20279;-74
2023/06/28 11:04:19;;;;;;;10.18;9.15;;;;;;;24.48;59.17;64537.59;5050808;28;20197;-77
2023/06/28 11:06:47;;;;;;;10.02;8.95;;;;;;;24.14;60.10;64499.41;5047037;28;20227;-75
2023/06/28 11:09:17;;;;;;;10.88;8.82;;;;;;;24.54;58.12;64547.00;5045345;28;20621;-76
2023/06/28 11:11:55;;;;;;;9.82;7.82;;;;;;;24.02;58.35;64489.47;5048272;28;20229;-74
2023/06/28 11:14:25;;;;;;;10.73;9.05;;;;;;;23.65;61.28;64451.75;5051178;28;20196;-75
2023/06/28 11:16:53;;;;;;;13.98;9.43;;;;;;;23.50;61.48;64430.88;5051926;28;20275;-74
2023/06/28 11:19:24;;;;;;;9.70;8.80;;;;;;;23.82;61.62;64466.41;5053135;28;20232;-74
2023/06/28 11:21:57;;;;;;;9.20;8.43;;;;;;;23.55;61.03;64443.38;5046303;28;20240;-75